sensor_id;sensor_type;location;lat;lon;timestamp;P1;durP1;ratioP1;P2;durP2;ratioP2
22794;SDS011;11564;50.920;11.612;2022-09-24T00:03:36;11.10;;;5.80;;
22794;SDS011;11564;50.920;11.612;2022-09-24T00:06:03;12.27;;;6.57;;
22794;SDS011;11564;50.920;11.612;2022-09-24T00:08:30;7.47;;;5.40;;
22794;SDS011;11564;50.920;11.612;2022-09-24T00:10:59;7.50;;;5.43;;
22794;SDS011;11564;50.920;11.612;2022-09-24T00:13:29;5.90;;;5.40;;
22794;SDS011;11564;50.920;11.612;2022-09-24T00:15:56;7.17;;;5.90;;
22794;SDS011;11564;50.920;11.612;2022-09-24T00:18:27;6.07;;;5.47;;
22794;SDS011;11564;50.920;11.612;2022-09-24T00:20:53;6.07;;;5.47;;
22794;SDS011;11564;50.920;11.612;2022-09-24T00:23:18;6.17;;;5.57;;
22794;SDS011;11564;50.920;11.612;2022-09-24T00:25:44;6.03;;;5.53;;
22794;SDS011;11564;50.920;11.612;2022-09-24T00:28:30;7.17;;;6.10;;
22794;SDS011;11564;50.920;11.612;2022-09-24T00:30:56;6.97;;;6.27;;
22794;SDS011;11564;50.920;11.612;2022-09-24T00:33:24;6.60;;;5.93;;
22794;SDS011;11564;50.920;11.612;2022-09-24T00:35:52;8.67;;;5.97;;
22794;SDS011;11564;50.920;11.612;2022-09-24T00:38:21;7.10;;;6.50;;
22794;SDS011;11564;50.920;11.612;2022-09-24T00:40:48;12.50;;;6.70;;
22794;SDS011;11564;50.920;11.612;2022-09-24T00:43:47;7.40;;;6.50;;
22794;SDS011;11564;50.920;11.612;2022-09-24T00:46:07;6.37;;;5.77;;
22794;SDS011;11564;50.920;11.612;2022-09-24T00:48:41;8.40;;;6.00;;
22794;SDS011;11564;50.920;11.612;2022-09-24T00:51:08;7.70;;;5.70;;
22794;SDS011;11564;50.920;11.612;2022-09-24T00:53:38;6.97;;;5.90;;
22794;SDS011;11564;50.920;11.612;2022-09-24T00:56:04;6.47;;;5.97;;
22794;SDS011;11564;50.920;11.612;2022-09-24T00:58:33;5.93;;;5.37;;
22794;SDS011;11564;50.920;11.612;2022-09-24T01:01:00;7.13;;;6.43;;
22794;SDS011;11564;50.920;11.612;2022-09-24T01:03:29;5.93;;;5.43;;
22794;SDS011;11564;50.920;11.612;2022-09-24T01:05:59;7.33;;;5.80;;
22794;SDS011;11564;50.920;11.612;2022-09-24T01:08:25;6.03;;;5.53;;
22794;SDS011;11564;50.920;11.612;2022-09-24T01:27:43;6.53;;;5.87;;
22794;SDS011;11564;50.920;11.612;2022-09-24T01:30:26;12.10;;;6.40;;
22794;SDS011;11564;50.920;11.612;2022-09-24T01:33:02;7.03;;;6.17;;
22794;SDS011;11564;50.920;11.612;2022-09-24T01:38:32;6.57;;;5.80;;
22794;SDS011;11564;50.920;11.612;2022-09-24T01:41:03;6.30;;;5.70;;
22794;SDS011;11564;50.920;11.612;2022-09-24T01:43:32;7.63;;;5.90;;
22794;SDS011;11564;50.920;11.612;2022-09-24T01:45:59;9.47;;;6.10;;
22794;SDS011;11564;50.920;11.612;2022-09-24T01:48:28;5.53;;;5.03;;
22794;SDS011;11564;50.920;11.612;2022-09-24T01:53:41;5.93;;;5.43;;
22794;SDS011;11564;50.920;11.612;2022-09-24T01:56:27;6.03;;;5.37;;
22794;SDS011;11564;50.920;11.612;2022-09-24T01:58:58;6.70;;;5.50;;
22794;SDS011;11564;50.920;11.612;2022-09-24T02:01:29;7.13;;;5.67;;
22794;SDS011;11564;50.920;11.612;2022-09-24T02:04:00;7.50;;;6.20;;
22794;SDS011;11564;50.920;11.612;2022-09-24T02:06:41;6.90;;;6.30;;
22794;SDS011;11564;50.920;11.612;2022-09-24T02:09:33;6.53;;;6.03;;
22794;SDS011;11564;50.920;11.612;2022-09-24T02:12:04;7.10;;;6.40;;
22794;SDS011;11564;50.920;11.612;2022-09-24T02:15:27;7.13;;;6.43;;
22794;SDS011;11564;50.920;11.612;2022-09-24T02:18:01;6.90;;;6.30;;
22794;SDS011;11564;50.920;11.612;2022-09-24T02:20:31;7.20;;;6.50;;
22794;SDS011;11564;50.920;11.612;2022-09-24T02:23:00;8.50;;;7.33;;
22794;SDS011;11564;50.920;11.612;2022-09-24T02:25:28;7.63;;;6.97;;
22794;SDS011;11564;50.920;11.612;2022-09-24T02:27:58;6.50;;;5.90;;
22794;SDS011;11564;50.920;11.612;2022-09-24T02:30:24;11.60;;;7.67;;
22794;SDS011;11564;50.920;11.612;2022-09-24T02:32:50;7.67;;;6.97;;
22794;SDS011;11564;50.920;11.612;2022-09-24T02:35:18;7.00;;;6.40;;
22794;SDS011;11564;50.920;11.612;2022-09-24T02:37:43;7.10;;;6.43;;
22794;SDS011;11564;50.920;11.612;2022-09-24T02:40:13;7.00;;;6.40;;
22794;SDS011;11564;50.920;11.612;2022-09-24T02:42:40;6.30;;;5.73;;
22794;SDS011;11564;50.920;11.612;2022-09-24T02:45:07;8.33;;;6.77;;
22794;SDS011;11564;50.920;11.612;2022-09-24T02:47:33;6.90;;;5.80;;
22794;SDS011;11564;50.920;11.612;2022-09-24T02:49:59;6.87;;;6.27;;
22794;SDS011;11564;50.920;11.612;2022-09-24T02:52:25;6.07;;;5.33;;
22794;SDS011;11564;50.920;11.612;2022-09-24T02:54:50;9.50;;;5.80;;
22794;SDS011;11564;50.920;11.612;2022-09-24T02:57:16;8.53;;;5.87;;
22794;SDS011;11564;50.920;11.612;2022-09-24T02:59:42;6.97;;;6.07;;
22794;SDS011;11564;50.920;11.612;2022-09-24T03:02:08;9.63;;;7.33;;
22794;SDS011;11564;50.920;11.612;2022-09-24T03:04:34;8.80;;;6.47;;
22794;SDS011;11564;50.920;11.612;2022-09-24T03:06:59;7.93;;;7.17;;
22794;SDS011;11564;50.920;11.612;2022-09-24T03:09:25;6.73;;;6.13;;
22794;SDS011;11564;50.920;11.612;2022-09-24T03:11:51;6.37;;;5.70;;
22794;SDS011;11564;50.920;11.612;2022-09-24T03:14:16;5.53;;;5.07;;
22794;SDS011;11564;50.920;11.612;2022-09-24T03:16:42;6.30;;;5.70;;
22794;SDS011;11564;50.920;11.612;2022-09-24T03:19:07;6.63;;;6.03;;
22794;SDS011;11564;50.920;11.612;2022-09-24T03:21:33;6.10;;;5.60;;
22794;SDS011;11564;50.920;11.612;2022-09-24T03:23:59;8.83;;;6.23;;
22794;SDS011;11564;50.920;11.612;2022-09-24T03:26:25;7.10;;;5.93;;
22794;SDS011;11564;50.920;11.612;2022-09-24T03:28:50;5.83;;;5.20;;
22794;SDS011;11564;50.920;11.612;2022-09-24T03:31:17;6.63;;;5.67;;
22794;SDS011;11564;50.920;11.612;2022-09-24T03:33:44;6.57;;;5.90;;
22794;SDS011;11564;50.920;11.612;2022-09-24T03:36:17;6.50;;;5.50;;
22794;SDS011;11564;50.920;11.612;2022-09-24T03:38:45;7.40;;;5.70;;
22794;SDS011;11564;50.920;11.612;2022-09-24T03:41:12;7.03;;;5.20;;
22794;SDS011;11564;50.920;11.612;2022-09-24T03:43:38;6.10;;;5.60;;
22794;SDS011;11564;50.920;11.612;2022-09-24T03:46:05;5.80;;;5.00;;
22794;SDS011;11564;50.920;11.612;2022-09-24T03:48:32;6.07;;;5.47;;
22794;SDS011;11564;50.920;11.612;2022-09-24T03:51:03;6.30;;;5.80;;
22794;SDS011;11564;50.920;11.612;2022-09-24T03:53:30;9.53;;;4.90;;
22794;SDS011;11564;50.920;11.612;2022-09-24T03:55:56;6.70;;;6.10;;
22794;SDS011;11564;50.920;11.612;2022-09-24T03:58:23;6.60;;;5.70;;
22794;SDS011;11564;50.920;11.612;2022-09-24T04:00:52;5.73;;;5.23;;
22794;SDS011;11564;50.920;11.612;2022-09-24T04:03:18;9.80;;;5.63;;
22794;SDS011;11564;50.920;11.612;2022-09-24T04:05:45;5.73;;;4.73;;
22794;SDS011;11564;50.920;11.612;2022-09-24T04:08:10;5.60;;;5.20;;
22794;SDS011;11564;50.920;11.612;2022-09-24T04:10:36;6.77;;;6.07;;
22794;SDS011;11564;50.920;11.612;2022-09-24T04:13:02;9.20;;;6.37;;
22794;SDS011;11564;50.920;11.612;2022-09-24T04:15:27;7.13;;;5.87;;
22794;SDS011;11564;50.920;11.612;2022-09-24T04:17:55;6.23;;;5.63;;
22794;SDS011;11564;50.920;11.612;2022-09-24T04:20:22;6.20;;;5.67;;
22794;SDS011;11564;50.920;11.612;2022-09-24T04:22:50;10.13;;;4.90;;
22794;SDS011;11564;50.920;11.612;2022-09-24T04:25:20;6.20;;;5.60;;
22794;SDS011;11564;50.920;11.612;2022-09-24T04:27:54;7.13;;;5.07;;
22794;SDS011;11564;50.920;11.612;2022-09-24T04:30:21;6.13;;;5.53;;
22794;SDS011;11564;50.920;11.612;2022-09-24T04:32:47;6.43;;;5.93;;
22794;SDS011;11564;50.920;11.612;2022-09-24T04:35:15;6.00;;;4.50;;
22794;SDS011;11564;50.920;11.612;2022-09-24T04:37:44;8.70;;;5.70;;
22794;SDS011;11564;50.920;11.612;2022-09-24T04:40:10;6.13;;;5.60;;
22794;SDS011;11564;50.920;11.612;2022-09-24T04:42:37;6.40;;;5.60;;
22794;SDS011;11564;50.920;11.612;2022-09-24T04:45:04;6.63;;;5.37;;
22794;SDS011;11564;50.920;11.612;2022-09-24T04:47:34;5.53;;;4.97;;
22794;SDS011;11564;50.920;11.612;2022-09-24T04:50:01;6.30;;;5.70;;
22794;SDS011;11564;50.920;11.612;2022-09-24T04:52:28;6.00;;;5.40;;
22794;SDS011;11564;50.920;11.612;2022-09-24T04:54:56;7.13;;;5.70;;
22794;SDS011;11564;50.920;11.612;2022-09-24T04:57:23;5.27;;;4.90;;
22794;SDS011;11564;50.920;11.612;2022-09-24T04:59:48;11.13;;;5.10;;
22794;SDS011;11564;50.920;11.612;2022-09-24T05:02:14;4.63;;;4.23;;
22794;SDS011;11564;50.920;11.612;2022-09-24T05:04:40;5.40;;;4.97;;
22794;SDS011;11564;50.920;11.612;2022-09-24T05:07:07;7.13;;;5.47;;
22794;SDS011;11564;50.920;11.612;2022-09-24T05:09:33;6.03;;;5.60;;
22794;SDS011;11564;50.920;11.612;2022-09-24T05:11:59;6.70;;;6.10;;
22794;SDS011;11564;50.920;11.612;2022-09-24T05:14:25;6.60;;;6.00;;
22794;SDS011;11564;50.920;11.612;2022-09-24T05:16:51;5.70;;;5.13;;
22794;SDS011;11564;50.920;11.612;2022-09-24T05:19:17;7.03;;;6.43;;
22794;SDS011;11564;50.920;11.612;2022-09-24T05:21:43;7.20;;;6.20;;
22794;SDS011;11564;50.920;11.612;2022-09-24T05:24:09;11.17;;;6.63;;
22794;SDS011;11564;50.920;11.612;2022-09-24T05:26:34;6.87;;;6.20;;
22794;SDS011;11564;50.920;11.612;2022-09-24T05:29:18;9.07;;;5.57;;
22794;SDS011;11564;50.920;11.612;2022-09-24T05:31:44;6.70;;;6.00;;
22794;SDS011;11564;50.920;11.612;2022-09-24T05:34:09;6.03;;;5.43;;
22794;SDS011;11564;50.920;11.612;2022-09-24T05:36:35;6.67;;;6.13;;
22794;SDS011;11564;50.920;11.612;2022-09-24T05:39:01;5.50;;;5.20;;
22794;SDS011;11564;50.920;11.612;2022-09-24T05:41:27;7.37;;;6.70;;
22794;SDS011;11564;50.920;11.612;2022-09-24T05:43:52;7.00;;;6.30;;
22794;SDS011;11564;50.920;11.612;2022-09-24T05:46:20;6.20;;;5.70;;
22794;SDS011;11564;50.920;11.612;2022-09-24T05:48:45;5.93;;;5.23;;
22794;SDS011;11564;50.920;11.612;2022-09-24T05:51:11;6.57;;;5.90;;
22794;SDS011;11564;50.920;11.612;2022-09-24T05:53:37;6.97;;;5.60;;
22794;SDS011;11564;50.920;11.612;2022-09-24T05:56:02;5.93;;;5.43;;
22794;SDS011;11564;50.920;11.612;2022-09-24T05:58:28;5.10;;;4.70;;
22794;SDS011;11564;50.920;11.612;2022-09-24T06:00:53;5.60;;;5.20;;
22794;SDS011;11564;50.920;11.612;2022-09-24T06:03:19;9.77;;;6.27;;
22794;SDS011;11564;50.920;11.612;2022-09-24T06:05:45;8.53;;;5.33;;
22794;SDS011;11564;50.920;11.612;2022-09-24T06:08:16;5.30;;;4.90;;
22794;SDS011;11564;50.920;11.612;2022-09-24T06:10:43;6.67;;;5.80;;
22794;SDS011;11564;50.920;11.612;2022-09-24T06:13:11;6.20;;;5.70;;
22794;SDS011;11564;50.920;11.612;2022-09-24T06:15:38;6.40;;;5.80;;
22794;SDS011;11564;50.920;11.612;2022-09-24T06:18:06;5.40;;;5.00;;
22794;SDS011;11564;50.920;11.612;2022-09-24T06:20:32;8.23;;;6.33;;
22794;SDS011;11564;50.920;11.612;2022-09-24T06:22:57;9.83;;;6.47;;
22794;SDS011;11564;50.920;11.612;2022-09-24T06:25:24;10.20;;;5.80;;
22794;SDS011;11564;50.920;11.612;2022-09-24T06:27:54;6.07;;;5.57;;
22794;SDS011;11564;50.920;11.612;2022-09-24T06:30:24;6.83;;;5.80;;
22794;SDS011;11564;50.920;11.612;2022-09-24T06:32:53;5.90;;;5.40;;
22794;SDS011;11564;50.920;11.612;2022-09-24T06:35:19;6.80;;;6.20;;
22794;SDS011;11564;50.920;11.612;2022-09-24T06:37:45;5.77;;;5.20;;
22794;SDS011;11564;50.920;11.612;2022-09-24T06:40:13;6.10;;;5.50;;
22794;SDS011;11564;50.920;11.612;2022-09-24T06:42:39;6.90;;;5.10;;
22794;SDS011;11564;50.920;11.612;2022-09-24T06:45:05;11.50;;;5.70;;
22794;SDS011;11564;50.920;11.612;2022-09-24T06:47:31;11.13;;;5.17;;
22794;SDS011;11564;50.920;11.612;2022-09-24T06:49:56;5.80;;;4.80;;
22794;SDS011;11564;50.920;11.612;2022-09-24T06:52:22;5.03;;;4.57;;
22794;SDS011;11564;50.920;11.612;2022-09-24T06:54:47;5.10;;;4.70;;
22794;SDS011;11564;50.920;11.612;2022-09-24T06:57:13;7.60;;;5.47;;
22794;SDS011;11564;50.920;11.612;2022-09-24T06:59:40;5.63;;;5.10;;
22794;SDS011;11564;50.920;11.612;2022-09-24T07:02:07;7.23;;;5.70;;
22794;SDS011;11564;50.920;11.612;2022-09-24T07:04:34;6.50;;;4.47;;
22794;SDS011;11564;50.920;11.612;2022-09-24T07:06:59;11.90;;;5.50;;
22794;SDS011;11564;50.920;11.612;2022-09-24T07:09:44;6.73;;;5.57;;
22794;SDS011;11564;50.920;11.612;2022-09-24T07:12:09;5.33;;;4.93;;
22794;SDS011;11564;50.920;11.612;2022-09-24T07:14:35;7.67;;;5.70;;
22794;SDS011;11564;50.920;11.612;2022-09-24T07:17:00;7.77;;;5.73;;
22794;SDS011;11564;50.920;11.612;2022-09-24T07:19:26;6.30;;;5.40;;
22794;SDS011;11564;50.920;11.612;2022-09-24T07:21:51;6.70;;;5.50;;
22794;SDS011;11564;50.920;11.612;2022-09-24T07:24:17;5.73;;;5.23;;
22794;SDS011;11564;50.920;11.612;2022-09-24T07:26:42;7.33;;;6.33;;
22794;SDS011;11564;50.920;11.612;2022-09-24T07:29:08;5.83;;;5.40;;
22794;SDS011;11564;50.920;11.612;2022-09-24T07:31:33;8.23;;;6.07;;
22794;SDS011;11564;50.920;11.612;2022-09-24T07:34:00;8.00;;;6.17;;
22794;SDS011;11564;50.920;11.612;2022-09-24T07:36:25;6.40;;;5.80;;
22794;SDS011;11564;50.920;11.612;2022-09-24T07:38:55;7.07;;;6.47;;
22794;SDS011;11564;50.920;11.612;2022-09-24T07:41:21;5.93;;;5.40;;
22794;SDS011;11564;50.920;11.612;2022-09-24T07:43:47;6.33;;;5.83;;
22794;SDS011;11564;50.920;11.612;2022-09-24T07:46:12;9.87;;;5.70;;
22794;SDS011;11564;50.920;11.612;2022-09-24T07:48:38;6.30;;;5.80;;
22794;SDS011;11564;50.920;11.612;2022-09-24T07:51:03;8.93;;;6.00;;
22794;SDS011;11564;50.920;11.612;2022-09-24T07:53:33;7.73;;;5.80;;
22794;SDS011;11564;50.920;11.612;2022-09-24T07:55:58;7.63;;;6.07;;
22794;SDS011;11564;50.920;11.612;2022-09-24T07:58:26;7.00;;;5.37;;
22794;SDS011;11564;50.920;11.612;2022-09-24T08:00:52;6.67;;;5.97;;
22794;SDS011;11564;50.920;11.612;2022-09-24T08:03:17;6.10;;;5.50;;
22794;SDS011;11564;50.920;11.612;2022-09-24T08:05:43;5.90;;;5.30;;
22794;SDS011;11564;50.920;11.612;2022-09-24T08:08:09;5.83;;;5.23;;
22794;SDS011;11564;50.920;11.612;2022-09-24T08:10:35;5.50;;;4.90;;
22794;SDS011;11564;50.920;11.612;2022-09-24T08:13:02;5.77;;;4.83;;
22794;SDS011;11564;50.920;11.612;2022-09-24T08:15:28;7.50;;;5.53;;
22794;SDS011;11564;50.920;11.612;2022-09-24T08:17:58;5.73;;;5.13;;
22794;SDS011;11564;50.920;11.612;2022-09-24T08:20:25;5.43;;;4.93;;
22794;SDS011;11564;50.920;11.612;2022-09-24T08:22:51;9.77;;;4.43;;
22794;SDS011;11564;50.920;11.612;2022-09-24T08:25:16;4.97;;;4.57;;
22794;SDS011;11564;50.920;11.612;2022-09-24T08:27:42;7.60;;;5.20;;
22794;SDS011;11564;50.920;11.612;2022-09-24T08:30:07;7.40;;;5.23;;
22794;SDS011;11564;50.920;11.612;2022-09-24T08:32:33;5.07;;;4.67;;
22794;SDS011;11564;50.920;11.612;2022-09-24T08:34:59;5.40;;;4.93;;
22794;SDS011;11564;50.920;11.612;2022-09-24T08:37:26;7.37;;;4.87;;
22794;SDS011;11564;50.920;11.612;2022-09-24T08:39:52;8.33;;;5.13;;
22794;SDS011;11564;50.920;11.612;2022-09-24T08:45:07;4.40;;;4.00;;
22794;SDS011;11564;50.920;11.612;2022-09-24T08:47:55;7.47;;;4.00;;
22794;SDS011;11564;50.920;11.612;2022-09-24T08:50:26;5.23;;;4.83;;
22794;SDS011;11564;50.920;11.612;2022-09-24T08:55:55;5.50;;;5.00;;
22794;SDS011;11564;50.920;11.612;2022-09-24T09:00:57;6.13;;;4.47;;
22794;SDS011;11564;50.920;11.612;2022-09-24T09:13:01;5.60;;;3.97;;
22794;SDS011;11564;50.920;11.612;2022-09-24T09:15:17;4.80;;;3.77;;
22794;SDS011;11564;50.920;11.612;2022-09-24T09:17:46;4.87;;;3.97;;
22794;SDS011;11564;50.920;11.612;2022-09-24T09:26:10;6.40;;;4.20;;
22794;SDS011;11564;50.920;11.612;2022-09-24T09:28:36;5.60;;;3.83;;
22794;SDS011;11564;50.920;11.612;2022-09-24T09:33:58;5.97;;;3.80;;
22794;SDS011;11564;50.920;11.612;2022-09-24T09:36:57;6.17;;;3.90;;
22794;SDS011;11564;50.920;11.612;2022-09-24T09:44:58;5.20;;;3.00;;
22794;SDS011;11564;50.920;11.612;2022-09-24T09:50:03;11.20;;;3.30;;
22794;SDS011;11564;50.920;11.612;2022-09-24T09:52:49;4.43;;;4.03;;
22794;SDS011;11564;50.920;11.612;2022-09-24T09:55:23;5.20;;;3.13;;
22794;SDS011;11564;50.920;11.612;2022-09-24T09:57:51;3.53;;;3.10;;
22794;SDS011;11564;50.920;11.612;2022-09-24T10:00:25;3.30;;;3.10;;
22794;SDS011;11564;50.920;11.612;2022-09-24T10:02:56;3.50;;;3.23;;
22794;SDS011;11564;50.920;11.612;2022-09-24T10:05:22;3.87;;;3.07;;
22794;SDS011;11564;50.920;11.612;2022-09-24T10:07:52;4.80;;;3.53;;
22794;SDS011;11564;50.920;11.612;2022-09-24T10:10:22;5.23;;;2.90;;
22794;SDS011;11564;50.920;11.612;2022-09-24T10:13:08;4.30;;;3.10;;
22794;SDS011;11564;50.920;11.612;2022-09-24T10:15:49;4.30;;;2.90;;
22794;SDS011;11564;50.920;11.612;2022-09-24T10:21:03;5.57;;;3.10;;
22794;SDS011;11564;50.920;11.612;2022-09-24T10:23:36;3.40;;;2.83;;
22794;SDS011;11564;50.920;11.612;2022-09-24T10:26:04;4.80;;;2.57;;
22794;SDS011;11564;50.920;11.612;2022-09-24T10:28:31;2.50;;;2.30;;
22794;SDS011;11564;50.920;11.612;2022-09-24T10:31:23;3.53;;;2.80;;
22794;SDS011;11564;50.920;11.612;2022-09-24T10:33:51;4.83;;;3.00;;
22794;SDS011;11564;50.920;11.612;2022-09-24T10:36:29;2.83;;;2.60;;
22794;SDS011;11564;50.920;11.612;2022-09-24T10:39:03;3.27;;;3.00;;
22794;SDS011;11564;50.920;11.612;2022-09-24T10:41:50;2.60;;;2.50;;
22794;SDS011;11564;50.920;11.612;2022-09-24T10:44:17;3.63;;;2.33;;
22794;SDS011;11564;50.920;11.612;2022-09-24T10:58:01;2.07;;;1.87;;
22794;SDS011;11564;50.920;11.612;2022-09-24T11:00:43;2.33;;;2.13;;
22794;SDS011;11564;50.920;11.612;2022-09-24T11:06:01;6.37;;;2.40;;
22794;SDS011;11564;50.920;11.612;2022-09-24T11:09:20;2.43;;;2.23;;
22794;SDS011;11564;50.920;11.612;2022-09-24T11:14:34;5.53;;;2.13;;
22794;SDS011;11564;50.920;11.612;2022-09-24T11:28:15;3.80;;;2.10;;
22794;SDS011;11564;50.920;11.612;2022-09-24T11:33:42;2.40;;;2.30;;
22794;SDS011;11564;50.920;11.612;2022-09-24T11:41:43;3.63;;;1.70;;
22794;SDS011;11564;50.920;11.612;2022-09-24T11:53:37;3.00;;;2.20;;
22794;SDS011;11564;50.920;11.612;2022-09-24T11:55:50;2.97;;;2.70;;
22794;SDS011;11564;50.920;11.612;2022-09-24T11:58:33;2.70;;;2.50;;
22794;SDS011;11564;50.920;11.612;2022-09-24T12:06:23;2.43;;;2.20;;
22794;SDS011;11564;50.920;11.612;2022-09-24T12:12:06;6.00;;;2.20;;
22794;SDS011;11564;50.920;11.612;2022-09-24T12:15:22;4.20;;;1.63;;
22794;SDS011;11564;50.920;11.612;2022-09-24T12:17:33;2.67;;;2.13;;
22794;SDS011;11564;50.920;11.612;2022-09-24T12:20:26;2.30;;;2.03;;
22794;SDS011;11564;50.920;11.612;2022-09-24T12:22:54;3.33;;;1.97;;
22794;SDS011;11564;50.920;11.612;2022-09-24T12:25:47;2.43;;;1.63;;
22794;SDS011;11564;50.920;11.612;2022-09-24T12:28:13;2.43;;;1.83;;
22794;SDS011;11564;50.920;11.612;2022-09-24T12:31:01;5.00;;;1.50;;
22794;SDS011;11564;50.920;11.612;2022-09-24T12:33:58;1.73;;;1.63;;
22794;SDS011;11564;50.920;11.612;2022-09-24T12:39:18;2.07;;;1.53;;
22794;SDS011;11564;50.920;11.612;2022-09-24T12:41:47;2.33;;;1.60;;
22794;SDS011;11564;50.920;11.612;2022-09-24T12:44:21;2.30;;;1.87;;
22794;SDS011;11564;50.920;11.612;2022-09-24T12:47:01;3.77;;;1.50;;
22794;SDS011;11564;50.920;11.612;2022-09-24T12:49:33;2.90;;;1.83;;
22794;SDS011;11564;50.920;11.612;2022-09-24T12:55:17;1.53;;;1.43;;
22794;SDS011;11564;50.920;11.612;2022-09-24T12:57:48;3.40;;;1.07;;
22794;SDS011;11564;50.920;11.612;2022-09-24T13:02:59;1.33;;;1.23;;
22794;SDS011;11564;50.920;11.612;2022-09-24T13:05:27;1.40;;;1.30;;
22794;SDS011;11564;50.920;11.612;2022-09-24T13:12:53;4.20;;;1.40;;
22794;SDS011;11564;50.920;11.612;2022-09-24T13:17:59;0.97;;;0.80;;
22794;SDS011;11564;50.920;11.612;2022-09-24T13:20:30;2.63;;;1.23;;
22794;SDS011;11564;50.920;11.612;2022-09-24T13:22:59;1.57;;;1.40;;
22794;SDS011;11564;50.920;11.612;2022-09-24T13:25:42;1.53;;;1.43;;
22794;SDS011;11564;50.920;11.612;2022-09-24T13:28:29;1.50;;;1.40;;
22794;SDS011;11564;50.920;11.612;2022-09-24T13:36:39;1.90;;;1.70;;
22794;SDS011;11564;50.920;11.612;2022-09-24T13:41:47;1.60;;;1.50;;
22794;SDS011;11564;50.920;11.612;2022-09-24T13:44:23;1.40;;;1.30;;
22794;SDS011;11564;50.920;11.612;2022-09-24T13:47:08;1.87;;;1.03;;
22794;SDS011;11564;50.920;11.612;2022-09-24T13:49:54;0.95;;;0.90;;
22794;SDS011;11564;50.920;11.612;2022-09-24T13:52:38;1.25;;;0.90;;
22794;SDS011;11564;50.920;11.612;2022-09-24T13:55:35;1.60;;;0.95;;
22794;SDS011;11564;50.920;11.612;2022-09-24T14:01:00;0.70;;;0.70;;
22794;SDS011;11564;50.920;11.612;2022-09-24T14:05:58;1.75;;;1.02;;
22794;SDS011;11564;50.920;11.612;2022-09-24T14:08:25;0.88;;;0.88;;
22794;SDS011;11564;50.920;11.612;2022-09-24T14:11:10;3.15;;;1.50;;
22794;SDS011;11564;50.920;11.612;2022-09-24T14:13:43;2.97;;;1.27;;
22794;SDS011;11564;50.920;11.612;2022-09-24T14:16:15;3.50;;;1.20;;
22794;SDS011;11564;50.920;11.612;2022-09-24T14:18:45;2.17;;;1.57;;
22794;SDS011;11564;50.920;11.612;2022-09-24T14:21:16;2.90;;;2.03;;
22794;SDS011;11564;50.920;11.612;2022-09-24T14:24:01;2.00;;;1.90;;
22794;SDS011;11564;50.920;11.612;2022-09-24T14:27:00;6.03;;;2.00;;
22794;SDS011;11564;50.920;11.612;2022-09-24T14:29:38;1.93;;;1.70;;
22794;SDS011;11564;50.920;11.612;2022-09-24T14:32:18;2.20;;;1.43;;
22794;SDS011;11564;50.920;11.612;2022-09-24T14:34:53;2.43;;;2.00;;
22794;SDS011;11564;50.920;11.612;2022-09-24T14:37:22;3.80;;;1.90;;
22794;SDS011;11564;50.920;11.612;2022-09-24T14:39:56;6.27;;;2.30;;
22794;SDS011;11564;50.920;11.612;2022-09-24T14:42:26;3.30;;;1.97;;
22794;SDS011;11564;50.920;11.612;2022-09-24T14:45:02;1.90;;;1.47;;
22794;SDS011;11564;50.920;11.612;2022-09-24T14:47:32;6.37;;;1.40;;
22794;SDS011;11564;50.920;11.612;2022-09-24T14:49:59;2.63;;;1.73;;
22794;SDS011;11564;50.920;11.612;2022-09-24T14:57:41;1.60;;;1.30;;
22794;SDS011;11564;50.920;11.612;2022-09-24T15:00:18;1.37;;;1.27;;
22794;SDS011;11564;50.920;11.612;2022-09-24T15:03:14;2.90;;;2.10;;
22794;SDS011;11564;50.920;11.612;2022-09-24T15:05:43;1.90;;;1.77;;
22794;SDS011;11564;50.920;11.612;2022-09-24T15:10:51;3.77;;;1.73;;
22794;SDS011;11564;50.920;11.612;2022-09-24T15:13:20;4.60;;;1.40;;
22794;SDS011;11564;50.920;11.612;2022-09-24T15:15:48;3.33;;;1.70;;
22794;SDS011;11564;50.920;11.612;2022-09-24T15:19:27;5.60;;;2.00;;
22794;SDS011;11564;50.920;11.612;2022-09-24T15:21:55;2.63;;;1.80;;
22794;SDS011;11564;50.920;11.612;2022-09-24T15:24:22;3.00;;;1.73;;
22794;SDS011;11564;50.920;11.612;2022-09-24T15:26:58;6.20;;;1.77;;
22794;SDS011;11564;50.920;11.612;2022-09-24T15:29:24;7.50;;;1.83;;
22794;SDS011;11564;50.920;11.612;2022-09-24T15:31:51;2.10;;;1.90;;
22794;SDS011;11564;50.920;11.612;2022-09-24T15:34:18;5.63;;;2.13;;
22794;SDS011;11564;50.920;11.612;2022-09-24T15:36:44;4.17;;;1.73;;
22794;SDS011;11564;50.920;11.612;2022-09-24T15:39:10;6.20;;;1.80;;
22794;SDS011;11564;50.920;11.612;2022-09-24T15:41:36;3.80;;;2.10;;
22794;SDS011;11564;50.920;11.612;2022-09-24T15:44:02;2.87;;;1.73;;
22794;SDS011;11564;50.920;11.612;2022-09-24T15:46:29;2.27;;;1.90;;
22794;SDS011;11564;50.920;11.612;2022-09-24T15:48:55;3.83;;;1.80;;
22794;SDS011;11564;50.920;11.612;2022-09-24T15:51:21;2.00;;;1.90;;
22794;SDS011;11564;50.920;11.612;2022-09-24T15:53:47;4.97;;;2.57;;
22794;SDS011;11564;50.920;11.612;2022-09-24T15:56:14;2.10;;;2.00;;
22794;SDS011;11564;50.920;11.612;2022-09-24T15:58:40;2.33;;;2.13;;
22794;SDS011;11564;50.920;11.612;2022-09-24T16:01:06;6.70;;;2.03;;
22794;SDS011;11564;50.920;11.612;2022-09-24T16:03:34;2.40;;;2.00;;
22794;SDS011;11564;50.920;11.612;2022-09-24T16:06:00;2.57;;;2.10;;
22794;SDS011;11564;50.920;11.612;2022-09-24T16:08:27;3.77;;;2.53;;
22794;SDS011;11564;50.920;11.612;2022-09-24T16:10:52;7.03;;;2.27;;
22794;SDS011;11564;50.920;11.612;2022-09-24T16:13:18;8.33;;;2.63;;
22794;SDS011;11564;50.920;11.612;2022-09-24T16:15:46;4.17;;;2.33;;
22794;SDS011;11564;50.920;11.612;2022-09-24T16:18:13;3.77;;;2.07;;
22794;SDS011;11564;50.920;11.612;2022-09-24T16:20:40;5.53;;;1.73;;
22794;SDS011;11564;50.920;11.612;2022-09-24T16:23:13;3.27;;;2.20;;
22794;SDS011;11564;50.920;11.612;2022-09-24T16:25:41;3.77;;;1.77;;
22794;SDS011;11564;50.920;11.612;2022-09-24T16:28:17;7.70;;;2.47;;
22794;SDS011;11564;50.920;11.612;2022-09-24T16:30:42;6.73;;;4.80;;
22794;SDS011;11564;50.920;11.612;2022-09-24T16:33:08;5.93;;;4.10;;
22794;SDS011;11564;50.920;11.612;2022-09-24T16:35:33;3.40;;;3.20;;
22794;SDS011;11564;50.920;11.612;2022-09-24T16:37:59;5.40;;;3.53;;
22794;SDS011;11564;50.920;11.612;2022-09-24T16:40:24;5.07;;;3.70;;
22794;SDS011;11564;50.920;11.612;2022-09-24T16:42:50;4.90;;;2.70;;
22794;SDS011;11564;50.920;11.612;2022-09-24T16:45:16;9.67;;;2.83;;
22794;SDS011;11564;50.920;11.612;2022-09-24T16:47:42;4.43;;;2.57;;
22794;SDS011;11564;50.920;11.612;2022-09-24T16:50:07;2.33;;;2.23;;
22794;SDS011;11564;50.920;11.612;2022-09-24T16:52:33;9.70;;;3.03;;
22794;SDS011;11564;50.920;11.612;2022-09-24T16:54:59;3.03;;;2.07;;
22794;SDS011;11564;50.920;11.612;2022-09-24T16:57:24;6.33;;;2.50;;
22794;SDS011;11564;50.920;11.612;2022-09-24T16:59:50;2.50;;;2.30;;
22794;SDS011;11564;50.920;11.612;2022-09-24T17:02:16;5.83;;;2.60;;
22794;SDS011;11564;50.920;11.612;2022-09-24T17:04:42;12.90;;;2.30;;
22794;SDS011;11564;50.920;11.612;2022-09-24T17:07:07;3.77;;;3.43;;
22794;SDS011;11564;50.920;11.612;2022-09-24T17:09:34;3.00;;;2.80;;
22794;SDS011;11564;50.920;11.612;2022-09-24T17:12:18;2.13;;;2.03;;
22794;SDS011;11564;50.920;11.612;2022-09-24T17:14:44;5.00;;;2.90;;
22794;SDS011;11564;50.920;11.612;2022-09-24T17:17:10;8.73;;;3.03;;
22794;SDS011;11564;50.920;11.612;2022-09-24T17:19:35;6.90;;;4.30;;
22794;SDS011;11564;50.920;11.612;2022-09-24T17:22:01;6.03;;;4.97;;
22794;SDS011;11564;50.920;11.612;2022-09-24T17:24:26;10.33;;;7.60;;